Time;durP1;ratioP1;P1;durP2;ratioP2;P2;SDS_P1;SDS_P2;PMS_P1;PMS_P2;Temp;Humidity;BMP_temperature;BMP_pressure;BME280_temperature;BME280_humidity;BME280_pressure;Samples;Min_cycle;Max_cycle;Signal;HPM_P1;HPM_P2
2022/01/02 00:00:17;;;;;;;1.20;1.10;;;18.10;43.60;;;;;;5068077;28;20421;-66
2022/01/02 00:02:50;;;;;;;1.47;1.37;;;18.10;43.60;;;;;;5069129;28;20423;-66
2022/01/02 00:05:20;;;;;;;1.27;1.17;;;18.10;43.60;;;;;;5068837;28;20437;-66
2022/01/02 00:07:59;;;;;;;1.30;1.20;;;18.10;43.60;;;;;;5069279;28;20504;-66
2022/01/02 00:10:30;;;;;;;1.40;1.30;;;18.10;43.60;;;;;;5066804;28;20839;-66
2022/01/02 00:13:00;;;;;;;1.40;1.30;;;18.10;43.60;;;;;;5069395;28;20448;-66
2022/01/02 00:15:26;;;;;;;1.57;1.47;;;18.10;43.60;;;;;;5069402;28;20967;-66
2022/01/02 00:17:57;;;;;;;1.23;1.13;;;18.10;43.60;;;;;;5069338;28;20815;-66
2022/01/02 00:20:32;;;;;;;1.27;1.17;;;18.10;43.70;;;;;;5066165;28;20758;-66
2022/01/02 00:23:05;;;;;;;1.40;1.30;;;18.10;43.60;;;;;;5069149;28;20440;-66
2022/01/02 00:25:35;;;;;;;1.30;1.20;;;18.10;43.60;;;;;;5066458;28;20425;-66
2022/01/02 00:28:00;;;;;;;1.30;1.20;;;18.10;43.60;;;;;;5069108;28;20452;-66
2022/01/02 00:30:26;;;;;;;1.20;1.10;;;18.10;43.60;;;;;;5069110;28;20487;-66
2022/01/02 00:32:52;;;;;;;1.50;1.40;;;18.10;43.60;;;;;;5051282;28;20225;-66
2022/01/02 00:35:18;;;;;;;1.20;1.10;;;18.10;43.60;;;;;;5069306;28;20566;-66
2022/01/02 00:37:44;;;;;;;1.20;1.10;;;18.10;43.60;;;;;;5069643;28;20359;-66
2022/01/02 00:40:13;;;;;;;1.40;1.30;;;18.10;43.60;;;;;;5069230;28;20248;-66
2022/01/02 00:42:41;;;;;;;1.20;1.10;;;18.10;43.60;;;;;;5071432;28;20241;-66
2022/01/02 00:45:16;;;;;;;1.30;1.20;;;18.10;43.60;;;;;;5073399;28;20504;-66
2022/01/02 00:47:56;;;;;;;1.40;1.30;;;18.10;43.60;;;;;;5073621;28;20424;-66
2022/01/02 00:50:33;;;;;;;1.20;1.13;;;18.10;43.60;;;;;;5071196;28;20421;-66
2022/01/02 00:53:02;;;;;;;1.23;1.13;;;18.10;43.60;;;;;;5070628;28;20417;-66
2022/01/02 00:55:30;;;;;;;1.23;1.13;;;18.10;43.60;;;;;;5072916;28;20458;-66
2022/01/02 00:57:58;;;;;;;1.30;1.20;;;18.10;43.60;;;;;;5072724;28;20781;-66
2022/01/02 01:00:25;;;;;;;1.30;1.20;;;18.10;43.60;;;;;;5073046;28;20476;-66
2022/01/02 01:02:54;;;;;;;1.40;1.30;;;18.10;43.60;;;;;;5072939;28;20948;-66
2022/01/02 01:05:25;;;;;;;1.20;1.10;;;18.10;43.60;;;;;;5070315;28;20935;-66
2022/01/02 01:08:17;;;;;;;1.30;1.20;;;18.10;43.70;;;;;;5072686;28;20433;-66
2022/01/02 01:10:44;;;;;;;1.20;1.10;;;18.10;43.60;;;;;;5067485;28;20881;-66
2022/01/02 01:13:10;;;;;;;1.30;1.20;;;18.10;44.50;;;;;;5072595;28;20446;-66
2022/01/02 01:15:37;;;;;;;1.30;1.20;;;18.10;43.70;;;;;;5072516;28;20416;-66
2022/01/02 01:18:05;;;;;;;1.30;1.20;;;18.10;43.70;;;;;;5070567;28;20225;-66
2022/01/02 01:20:42;;;;;;;1.20;1.10;;;18.10;43.70;;;;;;5072575;28;20918;-66
2022/01/02 01:23:12;;;;;;;1.23;1.13;;;18.10;43.70;;;;;;5071656;28;20413;-66
2022/01/02 01:25:43;;;;;;;1.20;1.10;;;18.10;43.70;;;;;;5071732;28;20401;-66
2022/01/02 01:28:09;;;;;;;1.40;1.30;;;18.10;43.60;;;;;;5072254;28;20474;-66
2022/01/02 01:30:35;;;;;;;1.40;1.30;;;18.10;43.70;;;;;;5072258;28;20433;-66
2022/01/02 01:33:00;;;;;;;1.30;1.20;;;18.10;43.70;;;;;;5071992;28;20221;-66
2022/01/02 01:35:26;;;;;;;1.20;1.10;;;18.10;43.60;;;;;;5072259;28;20240;-66
2022/01/02 01:37:52;;;;;;;1.43;1.33;;;18.10;43.60;;;;;;5072238;28;20222;-66
2022/01/02 01:40:18;;;;;;;1.20;1.10;;;18.10;43.70;;;;;;5072251;28;20916;-66
2022/01/02 01:42:57;;;;;;;1.20;1.10;;;18.10;43.60;;;;;;5072843;28;20267;-66
2022/01/02 01:47:53;;;;;;;1.40;1.30;;;18.10;43.70;;;;;;5070773;28;20417;-66
2022/01/02 01:50:21;;;;;;;1.20;1.10;;;18.10;43.60;;;;;;5070392;28;20229;-66
2022/01/02 01:52:47;;;;;;;1.50;1.40;;;18.00;43.60;;;;;;5071778;28;20417;-66
2022/01/02 01:55:13;;;;;;;1.40;1.30;;;18.10;43.60;;;;;;5072208;28;20421;-66
2022/01/02 01:57:40;;;;;;;1.30;1.20;;;18.10;43.70;;;;;;5071990;28;20246;-66
2022/01/02 02:00:10;;;;;;;1.20;1.10;;;18.10;43.70;;;;;;5071921;28;20297;-66
2022/01/02 02:02:35;;;;;;;1.10;1.00;;;18.10;43.70;;;;;;5071979;28;20459;-66
2022/01/02 02:05:01;;;;;;;1.30;1.20;;;18.10;43.70;;;;;;5053546;28;20470;-66
2022/01/02 02:07:37;;;;;;;1.43;1.33;;;18.00;43.60;;;;;;5071683;28;20218;-66
2022/01/02 02:12:30;;;;;;;1.20;1.10;;;18.00;43.60;;;;;;5071780;28;20530;-66
2022/01/02 02:14:56;;;;;;;1.17;1.10;;;18.10;43.70;;;;;;5071540;28;20768;-66
2022/01/02 02:17:22;;;;;;;1.30;1.20;;;18.10;43.70;;;;;;5071730;28;20935;-66
2022/01/02 02:19:49;;;;;;;1.30;1.20;;;18.10;43.70;;;;;;5071411;28;20418;-66
2022/01/02 02:22:14;;;;;;;1.20;1.10;;;18.10;43.70;;;;;;5071252;28;20428;-66
2022/01/02 02:24:41;;;;;;;1.23;1.13;;;18.10;43.70;;;;;;5072040;28;20443;-66
2022/01/02 02:27:06;;;;;;;1.30;1.20;;;18.10;43.70;;;;;;5053468;28;20792;-66
2022/01/02 02:29:32;;;;;;;1.20;1.10;;;18.10;43.60;;;;;;5071434;28;20483;-66
2022/01/02 02:31:58;;;;;;;1.27;1.17;;;18.10;43.70;;;;;;5071210;28;20231;-66
2022/01/02 02:34:24;;;;;;;1.40;1.30;;;18.00;44.30;;;;;;5071493;28;20224;-66
2022/01/02 02:36:50;;;;;;;1.20;1.10;;;18.00;43.50;;;;;;5070895;28;20430;-66
2022/01/02 02:39:15;;;;;;;1.10;1.00;;;18.00;43.60;;;;;;5070875;28;20308;-66
2022/01/02 02:41:43;;;;;;;1.20;1.10;;;18.00;43.50;;;;;;5071386;28;20218;-66
2022/01/02 02:44:33;;;;;;;1.40;1.30;;;18.10;43.70;;;;;;5071112;28;20210;-66
2022/01/02 02:49:43;;;;;;;1.20;1.10;;;18.00;43.50;;;;;;5070292;28;20521;-66
2022/01/02 02:52:20;;;;;;;1.30;1.20;;;18.00;43.60;;;;;;5070700;28;20518;-66
2022/01/02 02:54:47;;;;;;;1.47;1.37;;;18.00;43.60;;;;;;5069295;28;20681;-66
2022/01/02 02:57:14;;;;;;;1.30;1.20;;;18.00;43.50;;;;;;5070405;28;20471;-66
2022/01/02 02:59:39;;;;;;;1.50;1.40;;;18.10;43.70;;;;;;5071051;28;20437;-66
2022/01/02 03:02:05;;;;;;;1.30;1.20;;;18.10;43.70;;;;;;5070601;28;20886;-66
2022/01/02 03:04:30;;;;;;;1.00;1.00;;;18.00;43.60;;;;;;5069861;28;20273;-66
2022/01/02 03:06:56;;;;;;;1.20;1.10;;;18.00;43.60;;;;;;5070388;28;20558;-66
2022/01/02 03:09:46;;;;;;;1.30;1.20;;;18.00;43.60;;;;;;5070555;28;20677;-66
2022/01/02 03:12:11;;;;;;;1.43;1.33;;;18.00;43.60;;;;;;5069944;28;20295;-66
2022/01/02 03:14:36;;;;;;;1.40;1.30;;;18.10;43.70;;;;;;5070451;28;20434;-66
2022/01/02 03:17:03;;;;;;;1.23;1.13;;;18.00;43.60;;;;;;5070254;28;20439;-66
2022/01/02 03:19:29;;;;;;;1.10;1.00;;;18.00;43.60;;;;;;5070438;28;20225;-66
2022/01/02 03:21:56;;;;;;;1.17;1.00;;;18.00;43.60;;;;;;5069739;28;20540;-66
2022/01/02 03:24:21;;;;;;;1.40;1.30;;;18.10;43.60;;;;;;5070121;28;20906;-66
2022/01/02 03:26:47;;;;;;;1.40;1.30;;;18.00;43.60;;;;;;5070221;28;20417;-66
2022/01/02 03:29:12;;;;;;;1.30;1.20;;;18.00;43.60;;;;;;5070591;28;21085;-66
2022/01/02 03:31:38;;;;;;;1.33;1.23;;;18.00;43.60;;;;;;5069974;28;20671;-66
2022/01/02 03:34:03;;;;;;;1.20;1.10;;;18.00;43.60;;;;;;5069900;28;20267;-66
2022/01/02 03:36:29;;;;;;;1.40;1.30;;;18.10;43.70;;;;;;5070046;28;20249;-66
2022/01/02 03:38:55;;;;;;;1.43;1.33;;;18.00;43.60;;;;;;5069718;28;20214;-66
2022/01/02 03:41:20;;;;;;;1.30;1.20;;;18.00;43.60;;;;;;5070007;28;20693;-66
2022/01/02 03:43:46;;;;;;;1.13;1.03;;;18.10;43.70;;;;;;5052036;28;20224;-66
2022/01/02 03:46:12;;;;;;;1.30;1.20;;;18.10;43.70;;;;;;5070273;28;20622;-66
2022/01/02 03:48:38;;;;;;;1.10;1.00;;;18.00;43.60;;;;;;5069916;28;20237;-66
2022/01/02 03:51:04;;;;;;;1.30;1.20;;;18.00;43.60;;;;;;5069516;28;20452;-66
2022/01/02 03:53:29;;;;;;;1.10;1.00;;;18.00;43.60;;;;;;5070317;28;20214;-66
2022/01/02 03:55:55;;;;;;;1.20;1.10;;;18.00;43.60;;;;;;5069698;28;20894;-66
2022/01/02 03:58:21;;;;;;;1.30;1.20;;;18.00;43.60;;;;;;5069547;28;20558;-66
2022/01/02 04:00:46;;;;;;;1.20;1.10;;;18.00;43.60;;;;;;5069240;28;20235;-66
2022/01/02 04:03:12;;;;;;;1.30;1.20;;;18.10;43.70;;;;;;5069898;28;20678;-66
2022/01/02 04:05:38;;;;;;;1.50;1.40;;;18.00;43.60;;;;;;5069534;28;20210;-66
2022/01/02 04:08:05;;;;;;;1.37;1.27;;;18.00;43.60;;;;;;5069537;28;20219;-66
2022/01/02 04:10:30;;;;;;;1.30;1.20;;;18.00;43.60;;;;;;5069404;28;20278;-65
2022/01/02 04:12:56;;;;;;;1.20;1.10;;;18.00;43.60;;;;;;5069505;28;20414;-66
2022/01/02 04:15:22;;;;;;;1.20;1.10;;;18.00;43.60;;;;;;5069445;28;20218;-66
2022/01/02 04:17:47;;;;;;;1.00;0.90;;;18.00;43.60;;;;;;5068384;28;20241;-66
2022/01/02 04:20:14;;;;;;;1.40;1.30;;;18.00;43.60;;;;;;5069235;28;20216;-66
2022/01/02 04:22:40;;;;;;;1.33;1.23;;;18.00;43.60;;;;;;5069725;28;20238;-66
2022/01/02 04:25:07;;;;;;;1.30;1.20;;;18.10;43.70;;;;;;5069477;28;20492;-66
2022/01/02 04:27:33;;;;;;;1.20;1.10;;;18.00;43.60;;;;;;5069357;28;20449;-66
2022/01/02 04:29:58;;;;;;;1.30;1.20;;;18.00;43.60;;;;;;5069113;28;20983;-66
2022/01/02 04:32:24;;;;;;;1.40;1.30;;;18.10;43.70;;;;;;5069207;28;20240;-66
2022/01/02 04:34:50;;;;;;;1.50;1.40;;;18.10;43.70;;;;;;5069135;28;20225;-66
2022/01/02 04:37:15;;;;;;;1.30;1.20;;;18.00;43.60;;;;;;5068904;28;20224;-66
2022/01/02 04:39:41;;;;;;;1.40;1.30;;;18.00;43.60;;;;;;5069704;28;20221;-66
2022/01/02 04:42:07;;;;;;;1.37;1.27;;;18.00;43.60;;;;;;5069017;28;20644;-66
2022/01/02 04:44:33;;;;;;;1.50;1.40;;;18.00;43.60;;;;;;5069111;28;20466;-66
2022/01/02 04:46:58;;;;;;;1.30;1.20;;;18.00;43.60;;;;;;5051042;28;20798;-66
2022/01/02 04:49:24;;;;;;;1.20;1.10;;;18.00;43.60;;;;;;5069230;28;20218;-66
2022/01/02 04:51:52;;;;;;;1.30;1.20;;;18.00;43.60;;;;;;5051050;28;20290;-66
2022/01/02 04:54:18;;;;;;;1.57;1.47;;;18.00;43.50;;;;;;5065499;28;20220;-66
2022/01/02 04:56:43;;;;;;;1.20;1.10;;;18.00;43.60;;;;;;5069571;28;20425;-66
2022/01/02 04:59:09;;;;;;;1.20;1.10;;;18.00;43.60;;;;;;5068851;28;20590;-66
2022/01/02 05:01:35;;;;;;;1.30;1.20;;;18.00;43.60;;;;;;5069108;28;20313;-66
2022/01/02 05:04:01;;;;;;;1.30;1.20;;;18.00;43.60;;;;;;5068696;28;20233;-66
2022/01/02 05:06:26;;;;;;;1.10;1.00;;;18.00;43.60;;;;;;5068895;28;20209;-66
2022/01/02 05:08:52;;;;;;;1.40;1.30;;;18.00;43.60;;;;;;5068728;28;20217;-66
2022/01/02 05:11:17;;;;;;;1.30;1.20;;;18.00;43.60;;;;;;5068570;28;20647;-66
2022/01/02 05:13:43;;;;;;;1.30;1.20;;;18.00;43.60;;;;;;5068320;28;20210;-66
2022/01/02 05:16:10;;;;;;;1.40;1.30;;;18.00;44.30;;;;;;5068836;28;20222;-66
2022/01/02 05:18:35;;;;;;;1.27;1.17;;;18.00;43.60;;;;;;5069065;28;20644;-66
2022/01/02 05:21:01;;;;;;;1.27;1.17;;;18.00;43.60;;;;;;5050649;28;20508;-66
2022/01/02 05:23:29;;;;;;;1.10;1.00;;;18.00;43.60;;;;;;5068780;28;20226;-66
2022/01/02 05:25:55;;;;;;;1.37;1.27;;;18.00;43.50;;;;;;5068541;28;20246;-66
2022/01/02 05:28:20;;;;;;;1.33;1.23;;;18.00;43.60;;;;;;5070198;28;20429;-66
2022/01/02 05:30:46;;;;;;;1.40;1.30;;;18.00;43.60;;;;;;5072162;28;20440;-66
2022/01/02 05:33:11;;;;;;;1.30;1.20;;;18.00;43.60;;;;;;5073069;28;20234;-66
2022/01/02 05:35:37;;;;;;;1.30;1.20;;;18.00;43.60;;;;;;5072443;28;20214;-66
2022/01/02 05:38:03;;;;;;;1.30;1.20;;;18.10;43.70;;;;;;5072338;28;20221;-66
2022/01/02 05:40:33;;;;;;;1.33;1.20;;;18.00;43.50;;;;;;5072251;28;20221;-66
2022/01/02 05:43:03;;;;;;;1.40;1.30;;;18.10;43.60;;;;;;5072141;28;20225;-66
2022/01/02 05:45:29;;;;;;;1.30;1.20;;;18.00;43.60;;;;;;5072286;28;20464;-66
2022/01/02 05:47:55;;;;;;;1.17;1.07;;;18.00;43.60;;;;;;5071953;28;20409;-66
2022/01/02 05:50:21;;;;;;;1.63;1.53;;;18.10;43.80;;;;;;5072002;28;20832;-66
2022/01/02 05:52:47;;;;;;;1.47;1.37;;;18.00;43.60;;;;;;5071806;28;20683;-66
2022/01/02 05:55:13;;;;;;;1.17;1.07;;;18.10;43.70;;;;;;5072412;28;20434;-66
2022/01/02 05:57:38;;;;;;;1.30;1.20;;;18.00;43.60;;;;;;5072071;28;20289;-66
2022/01/02 06:00:07;;;;;;;1.30;1.20;;;18.10;43.70;;;;;;5071493;28;20240;-66
2022/01/02 06:02:32;;;;;;;1.20;1.10;;;18.00;43.60;;;;;;5071874;28;20213;-66
2022/01/02 06:05:03;;;;;;;1.30;1.20;;;18.10;43.60;;;;;;5071535;28;20425;-66
2022/01/02 06:07:33;;;;;;;1.40;1.30;;;18.10;43.60;;;;;;5070643;28;20262;-66
2022/01/02 06:10:00;;;;;;;1.20;1.10;;;18.10;43.70;;;;;;5071383;28;20442;-66
2022/01/02 06:12:26;;;;;;;1.27;1.17;;;18.10;43.70;;;;;;5071712;28;21111;-66
2022/01/02 06:14:51;;;;;;;1.30;1.20;;;18.10;43.70;;;;;;5071413;28;20492;-66
2022/01/02 06:17:17;;;;;;;1.43;1.33;;;18.10;43.70;;;;;;5071626;28;20218;-66
2022/01/02 06:19:43;;;;;;;1.27;1.17;;;18.10;43.70;;;;;;5071993;28;20250;-66
2022/01/02 06:22:08;;;;;;;1.20;1.10;;;18.00;43.60;;;;;;5071277;28;20210;-66
2022/01/02 06:24:34;;;;;;;2.30;2.17;;;18.10;43.70;;;;;;5071699;28;20678;-66
2022/01/02 06:26:59;;;;;;;1.27;1.17;;;18.10;43.70;;;;;;5071372;28;20651;-66
2022/01/02 06:29:25;;;;;;;1.30;1.20;;;18.10;43.70;;;;;;5071289;28;20218;-66
2022/01/02 06:31:51;;;;;;;1.30;1.20;;;18.10;43.70;;;;;;5071014;28;20327;-66
2022/01/02 06:34:17;;;;;;;1.40;1.30;;;18.10;43.60;;;;;;5071032;28;20210;-66
2022/01/02 06:36:43;;;;;;;1.30;1.20;;;18.10;43.60;;;;;;5071388;28;20558;-66
2022/01/02 06:39:08;;;;;;;1.40;1.30;;;18.10;43.70;;;;;;5070585;28;20409;-66
2022/01/02 06:41:34;;;;;;;1.10;1.00;;;18.10;43.60;;;;;;5070953;28;20446;-66
2022/01/02 06:44:00;;;;;;;1.30;1.20;;;18.10;43.70;;;;;;5071066;28;20254;-66
2022/01/02 06:46:25;;;;;;;1.30;1.20;;;18.00;43.50;;;;;;5071078;28;20614;-66
2022/01/02 06:48:51;;;;;;;1.23;1.13;;;18.10;43.60;;;;;;5071063;28;20221;-66
2022/01/02 06:51:16;;;;;;;1.83;1.17;;;18.10;43.70;;;;;;5070695;28;20603;-66
2022/01/02 06:53:42;;;;;;;1.27;1.17;;;18.10;43.60;;;;;;5071204;28;20218;-66
2022/01/02 06:56:08;;;;;;;1.10;1.00;;;18.10;43.60;;;;;;5070550;28;20217;-66
2022/01/02 06:58:38;;;;;;;1.57;1.47;;;18.10;43.70;;;;;;5070902;28;20213;-66
2022/01/02 07:01:04;;;;;;;1.20;1.10;;;18.10;43.60;;;;;;5052743;28;20262;-66
2022/01/02 07:03:30;;;;;;;1.30;1.20;;;18.10;43.60;;;;;;5070514;28;20441;-66
2022/01/02 07:05:56;;;;;;;1.60;1.50;;;18.10;43.60;;;;;;5070456;28;20443;-66
2022/01/02 07:08:21;;;;;;;1.50;1.40;;;18.10;43.60;;;;;;5070596;28;20419;-66
2022/01/02 07:10:47;;;;;;;1.30;1.10;;;18.10;43.60;;;;;;5070121;28;20276;-66
2022/01/02 07:13:13;;;;;;;1.30;1.20;;;18.10;43.60;;;;;;5070798;28;20241;-66
2022/01/02 07:15:38;;;;;;;1.30;1.20;;;18.10;43.60;;;;;;5070425;28;20331;-66
2022/01/02 07:18:04;;;;;;;1.37;1.27;;;18.10;43.60;;;;;;5070272;28;20221;-66
2022/01/02 07:20:29;;;;;;;1.60;1.50;;;18.10;43.60;;;;;;5070117;28;20221;-66
2022/01/02 07:22:55;;;;;;;1.50;1.40;;;18.10;43.50;;;;;;5070470;28;20221;-66
2022/01/02 07:25:21;;;;;;;1.30;1.20;;;18.10;43.60;;;;;;5070347;28;20676;-65
2022/01/02 07:27:46;;;;;;;1.10;1.00;;;18.10;43.50;;;;;;5070082;28;20233;-66
2022/01/02 07:30:12;;;;;;;1.50;1.40;;;18.10;43.60;;;;;;5070394;28;20238;-66
2022/01/02 07:32:39;;;;;;;1.30;1.20;;;18.10;43.50;;;;;;5070368;28;20232;-66
2022/01/02 07:35:06;;;;;;;1.33;1.23;;;18.10;43.60;;;;;;5070107;28;20455;-66
2022/01/02 07:37:33;;;;;;;1.37;1.27;;;18.10;43.50;;;;;;5069817;28;20514;-66
2022/01/02 07:39:59;;;;;;;1.30;1.20;;;18.10;43.50;;;;;;5069623;28;20470;-66
2022/01/02 07:42:24;;;;;;;1.30;1.20;;;18.10;43.50;;;;;;5069926;28;20439;-66
2022/01/02 07:44:50;;;;;;;1.30;1.20;;;18.10;43.50;;;;;;5051900;28;20677;-66
2022/01/02 07:47:16;;;;;;;1.43;1.30;;;18.10;43.50;;;;;;5069850;28;20217;-66
2022/01/02 07:49:41;;;;;;;1.20;1.10;;;18.10;43.50;;;;;;5070260;28;20650;-66
2022/01/02 07:52:07;;;;;;;1.30;1.20;;;18.10;43.50;;;;;;5069356;28;20232;-66
2022/01/02 07:54:32;;;;;;;1.33;1.23;;;18.10;43.60;;;;;;5069666;28;20543;-66
2022/01/02 07:56:58;;;;;;;1.30;1.20;;;18.10;43.60;;;;;;5069406;28;20264;-66
2022/01/02 07:59:24;;;;;;;1.20;1.10;;;18.10;43.50;;;;;;5069463;28;20214;-66
2022/01/02 08:01:49;;;;;;;1.30;1.20;;;18.10;43.50;;;;;;5069385;28;20217;-66
2022/01/02 08:04:15;;;;;;;1.30;1.20;;;18.10;43.50;;;;;;5068997;28;20229;-66
2022/01/02 08:06:41;;;;;;;1.40;1.30;;;18.10;43.50;;;;;;5069939;28;20220;-66
2022/01/02 08:09:06;;;;;;;1.30;1.20;;;18.10;43.60;;;;;;5069440;28;20209;-66
2022/01/02 08:11:32;;;;;;;1.30;1.20;;;18.10;43.50;;;;;;5069425;28;20226;-66
2022/01/02 08:13:58;;;;;;;1.40;1.30;;;18.10;43.50;;;;;;5069630;28;20244;-66
2022/01/02 08:16:23;;;;;;;1.60;1.50;;;18.10;43.50;;;;;;5069496;28;20210;-66
2022/01/02 08:18:49;;;;;;;1.23;1.13;;;18.10;43.50;;;;;;5069101;28;20694;-66
2022/01/02 08:21:15;;;;;;;1.20;1.10;;;18.10;43.50;;;;;;5069237;28;20213;-66
2022/01/02 08:23:40;;;;;;;1.37;1.27;;;18.10;43.50;;;;;;5070029;28;20225;-66
2022/01/02 08:26:06;;;;;;;1.00;1.00;;;18.10;43.50;;;;;;5069089;28;20286;-66
2022/01/02 08:28:31;;;;;;;1.40;1.30;;;18.10;43.50;;;;;;5069387;28;20222;-66
2022/01/02 08:30:57;;;;;;;1.30;1.20;;;18.10;43.50;;;;;;5069103;28;20237;-66
2022/01/02 08:33:23;;;;;;;1.20;1.10;;;18.10;43.50;;;;;;5065891;28;20205;-66
2022/01/02 08:35:48;;;;;;;1.30;1.20;;;18.10;43.50;;;;;;5069150;28;20221;-66
2022/01/02 08:38:15;;;;;;;1.37;1.27;;;18.10;43.50;;;;;;5069792;28;20674;-66
2022/01/02 08:40:41;;;;;;;1.30;1.20;;;18.10;43.50;;;;;;5069467;28;20560;-66
2022/01/02 08:43:08;;;;;;;1.50;1.40;;;18.10;43.50;;;;;;5069104;28;20512;-66
2022/01/02 08:45:35;;;;;;;1.27;1.17;;;18.10;43.50;;;;;;5069209;28;20500;-66
2022/01/02 08:48:01;;;;;;;1.30;1.20;;;18.10;43.50;;;;;;5069077;28;20487;-66
2022/01/02 08:50:27;;;;;;;1.40;1.30;;;18.10;43.50;;;;;;5068793;28;20474;-66
2022/01/02 08:52:53;;;;;;;1.33;1.23;;;18.10;43.40;;;;;;5069007;28;20430;-66
2022/01/02 08:55:19;;;;;;;1.40;1.30;;;18.10;43.50;;;;;;5068868;28;20574;-66
2022/01/02 08:57:45;;;;;;;1.50;1.40;;;18.10;43.50;;;;;;5069736;28;20275;-66
2022/01/02 09:00:11;;;;;;;2.40;2.13;;;18.10;43.50;;;;;;5069202;28;20304;-66
2022/01/02 09:02:36;;;;;;;1.40;1.30;;;18.10;43.50;;;;;;5069447;28;20213;-66
2022/01/02 09:05:03;;;;;;;1.40;1.30;;;18.10;43.50;;;;;;5072484;28;20458;-66
2022/01/02 09:07:28;;;;;;;1.37;1.27;;;18.10;43.50;;;;;;5072927;28;20216;-66
2022/01/02 09:09:54;;;;;;;1.30;1.20;;;18.10;43.50;;;;;;5069359;28;20850;-66
2022/01/02 09:12:20;;;;;;;1.30;1.20;;;18.10;43.50;;;;;;5072607;28;20214;-66
2022/01/02 09:14:45;;;;;;;1.33;1.23;;;18.10;43.50;;;;;;5072786;28;20222;-66
2022/01/02 09:17:11;;;;;;;1.50;1.40;;;18.10;43.50;;;;;;5073187;28;20548;-66
2022/01/02 09:19:37;;;;;;;1.40;1.30;;;18.10;43.50;;;;;;5072962;28;20229;-66
2022/01/02 09:22:03;;;;;;;1.37;1.27;;;18.10;43.50;;;;;;5072477;28;20469;-66
2022/01/02 09:24:30;;;;;;;1.47;1.37;;;18.10;43.60;;;;;;5072693;28;20210;-66
2022/01/02 09:26:55;;;;;;;1.50;1.40;;;18.10;43.50;;;;;;5054485;28;20452;-66
2022/01/02 09:29:21;;;;;;;1.40;1.30;;;18.10;43.50;;;;;;5071955;28;20448;-66
2022/01/02 09:31:47;;;;;;;1.40;1.30;;;18.10;43.50;;;;;;5072404;28;20230;-66
2022/01/02 09:34:12;;;;;;;1.40;1.30;;;18.10;43.50;;;;;;5072826;28;20240;-66
2022/01/02 09:36:38;;;;;;;1.30;1.20;;;18.10;43.50;;;;;;5072408;28;20225;-66
2022/01/02 09:39:04;;;;;;;1.63;1.53;;;18.10;43.50;;;;;;5072333;28;20213;-66
2022/01/02 09:41:31;;;;;;;1.43;1.33;;;18.10;43.50;;;;;;5072274;28;20301;-66
2022/01/02 09:43:57;;;;;;;1.43;1.33;;;18.10;43.50;;;;;;5072219;28;20509;-66
2022/01/02 09:46:25;;;;;;;1.20;1.10;;;18.10;43.50;;;;;;5072019;28;20505;-66
2022/01/02 09:48:51;;;;;;;1.40;1.30;;;18.10;43.50;;;;;;5071964;28;20917;-66
2022/01/02 09:51:20;;;;;;;1.43;1.33;;;18.10;43.50;;;;;;5071966;28;20808;-66
2022/01/02 09:53:46;;;;;;;1.50;1.40;;;18.10;43.50;;;;;;5072149;28;20434;-66
2022/01/02 09:56:14;;;;;;;1.23;1.13;;;18.10;43.50;;;;;;5071540;28;20484;-66
2022/01/02 09:58:42;;;;;;;1.30;1.20;;;18.10;43.50;;;;;;5072186;28;20530;-66
2022/01/02 10:01:14;;;;;;;1.23;1.13;;;18.10;43.40;;;;;;5070428;28;20443;-66
2022/01/02 10:03:44;;;;;;;1.40;1.30;;;18.00;43.30;;;;;;5054120;28;20455;-66
2022/01/02 10:06:10;;;;;;;1.20;1.10;;;18.00;43.30;;;;;;5052981;28;20931;-66
2022/01/02 10:08:36;;;;;;;1.40;1.30;;;18.00;43.30;;;;;;5072035;28;20439;-66
2022/01/02 10:11:06;;;;;;;1.40;1.30;;;18.10;43.40;;;;;;5053605;28;20355;-66
2022/01/02 10:13:56;;;;;;;1.50;1.40;;;18.10;43.50;;;;;;5070261;28;20895;-66
2022/01/02 10:16:23;;;;;;;1.20;1.10;;;18.10;43.40;;;;;;5069299;28;20461;-66
2022/01/02 10:18:51;;;;;;;1.50;1.40;;;18.00;43.30;;;;;;5071549;28;20428;-66
2022/01/02 10:21:35;;;;;;;1.30;1.20;;;18.00;43.20;;;;;;5071411;28;20980;-66
2022/01/02 10:24:16;;;;;;;1.43;1.33;;;18.00;43.20;;;;;;5070667;28;20517;-66
2022/01/02 10:27:02;;;;;;;1.30;1.20;;;18.00;43.30;;;;;;5071492;28;20421;-66
2022/01/02 10:29:41;;;;;;;1.20;1.10;;;18.00;43.30;;;;;;5071079;28;20504;-66
2022/01/02 10:32:36;;;;;;;1.30;1.20;;;18.00;43.20;;;;;;5071322;28;20459;-67
2022/01/02 10:35:17;;;;;;;1.37;1.27;;;18.00;43.20;;;;;;5071155;28;21063;-66
2022/01/02 10:37:54;;;;;;;1.43;1.33;;;18.00;43.20;;;;;;5069246;28;20796;-66
2022/01/02 10:40:38;;;;;;;1.40;1.30;;;18.00;43.20;;;;;;5070937;28;20437;-66
2022/01/02 10:43:10;;;;;;;1.00;1.00;;;18.00;43.20;;;;;;5069977;28;20902;-66
2022/01/02 10:45:43;;;;;;;1.13;1.10;;;18.00;43.20;;;;;;5053058;28;20454;-66
2022/01/02 10:48:12;;;;;;;1.40;1.30;;;18.00;43.20;;;;;;5070975;28;20447;-66
2022/01/02 10:50:39;;;;;;;1.40;1.30;;;18.00;43.20;;;;;;5068075;28;20429;-66
2022/01/02 10:53:16;;;;;;;1.40;1.30;;;18.00;43.20;;;;;;5070677;28;20488;-66
2022/01/02 10:55:46;;;;;;;1.33;1.23;;;18.00;43.10;;;;;;5070103;28;20567;-66
2022/01/02 10:58:12;;;;;;;1.40;1.30;;;18.00;43.20;;;;;;5070188;28;20457;-66
2022/01/02 11:00:38;;;;;;;1.27;1.17;;;18.00;43.20;;;;;;5070865;28;20473;-66
2022/01/02 11:03:06;;;;;;;1.67;1.37;;;18.00;43.20;;;;;;5070338;28;21008;-66
2022/01/02 11:05:35;;;;;;;1.30;1.20;;;18.00;43.20;;;;;;5070416;28;20417;-66
2022/01/02 11:08:03;;;;;;;1.30;1.20;;;18.00;43.20;;;;;;5070577;28;20416;-66
2022/01/02 11:10:31;;;;;;;1.40;1.30;;;18.00;43.20;;;;;;5070151;28;20453;-66
2022/01/02 11:12:57;;;;;;;1.50;1.40;;;18.00;43.20;;;;;;5067562;28;20432;-66
2022/01/02 11:15:26;;;;;;;1.30;1.20;;;18.00;43.10;;;;;;5070533;28;20479;-66
2022/01/02 11:17:52;;;;;;;1.40;1.30;;;18.00;43.10;;;;;;5070450;28;20441;-66
2022/01/02 11:20:22;;;;;;;1.57;1.47;;;18.00;43.10;;;;;;5070251;28;20525;-66
2022/01/02 11:22:54;;;;;;;1.40;1.30;;;18.00;43.00;;;;;;5070247;28;20429;-66
2022/01/02 11:25:39;;;;;;;1.40;1.30;;;18.00;43.00;;;;;;5069786;28;20794;-66
2022/01/02 11:28:31;;;;;;;1.40;1.30;;;18.00;43.00;;;;;;5070225;28;20430;-66
2022/01/02 11:30:57;;;;;;;1.37;1.27;;;18.00;43.00;;;;;;5069496;28;20436;-66
2022/01/02 11:33:39;;;;;;;1.40;1.30;;;18.00;43.00;;;;;;5070091;28;20477;-66
2022/01/02 11:36:29;;;;;;;1.30;1.20;;;18.00;43.10;;;;;;5068691;28;20715;-66
2022/01/02 11:39:00;;;;;;;1.20;1.10;;;18.00;43.10;;;;;;5051143;28;20418;-66
2022/01/02 11:41:39;;;;;;;1.30;1.20;;;18.00;43.20;;;;;;5069900;28;20945;-66
2022/01/02 11:44:08;;;;;;;1.60;1.50;;;18.00;43.10;;;;;;5033333;28;22063;-66
2022/01/02 11:46:54;;;;;;;1.30;1.20;;;18.00;43.10;;;;;;5069748;28;20429;-66
2022/01/02 11:49:25;;;;;;;1.30;1.20;;;18.00;43.20;;;;;;5067644;28;20460;-66
2022/01/02 11:52:02;;;;;;;1.30;1.20;;;18.00;43.10;;;;;;5066644;28;20463;-66
2022/01/02 11:54:31;;;;;;;1.80;1.30;;;18.00;43.10;;;;;;5069636;28;20819;-67
2022/01/02 11:57:00;;;;;;;1.33;1.23;;;18.00;43.20;;;;;;5069669;28;20428;-66
2022/01/02 11:59:38;;;;;;;1.70;1.23;;;18.00;43.20;;;;;;5069467;28;20470;-66
2022/01/02 12:02:30;;;;;;;1.30;1.20;;;18.00;43.10;;;;;;5069198;28;20421;-66
2022/01/02 12:05:14;;;;;;;1.20;1.10;;;18.00;43.10;;;;;;5067655;28;20459;-68
2022/01/02 12:08:01;;;;;;;1.50;1.40;;;18.00;43.20;;;;;;5069662;28;20878;-66
2022/01/02 12:10:35;;;;;;;1.30;1.20;;;18.00;43.10;;;;;;5067609;28;20445;-66
2022/01/02 12:13:10;;;;;;;1.50;1.40;;;18.00;43.20;;;;;;5067373;28;20417;-66
2022/01/02 12:15:38;;;;;;;2.87;1.40;;;18.00;43.10;;;;;;5067789;28;20425;-66
2022/01/02 12:18:23;;;;;;;1.60;1.50;;;18.00;43.20;;;;;;5068751;28;20435;-66
2022/01/02 12:21:00;;;;;;;1.20;1.10;;;18.00;43.10;;;;;;5067213;28;20936;-66
2022/01/02 12:23:40;;;;;;;1.20;1.10;;;18.00;43.20;;;;;;5051249;28;20516;-66
2022/01/02 12:26:20;;;;;;;1.27;1.17;;;18.00;43.10;;;;;;5050096;28;20417;-66
2022/01/02 12:28:51;;;;;;;1.40;1.30;;;18.00;43.00;;;;;;5050720;28;20454;-67
2022/01/02 12:31:17;;;;;;;1.43;1.33;;;18.00;43.10;;;;;;5051115;28;20451;-66
2022/01/02 12:33:44;;;;;;;1.30;1.20;;;18.00;43.10;;;;;;5069550;28;20450;-66
2022/01/02 12:36:14;;;;;;;1.60;1.50;;;18.00;43.10;;;;;;5051086;28;20421;-66
2022/01/02 12:38:58;;;;;;;1.60;1.50;;;18.00;43.10;;;;;;5050335;28;20801;-66
2022/01/02 12:41:29;;;;;;;1.40;1.30;;;18.00;43.00;;;;;;5042090;28;20428;-66
2022/01/02 12:43:56;;;;;;;1.30;1.20;;;18.00;43.10;;;;;;5050897;28;20450;-66
2022/01/02 12:46:33;;;;;;;1.50;1.40;;;18.00;43.10;;;;;;5050764;28;21150;-66
2022/01/02 12:48:59;;;;;;;1.23;1.13;;;18.00;43.10;;;;;;5047562;28;20523;-66
2022/01/02 12:51:30;;;;;;;1.50;1.40;;;18.00;43.10;;;;;;5068614;28;20467;-66
2022/01/02 12:54:03;;;;;;;2.40;1.33;;;18.00;43.10;;;;;;5068748;28;20452;-66
2022/01/02 12:56:41;;;;;;;1.30;1.20;;;18.00;43.10;;;;;;5069003;28;20432;-66
2022/01/02 12:59:21;;;;;;;1.40;1.30;;;18.00;43.00;;;;;;5067433;28;20449;-66
2022/01/02 13:02:02;;;;;;;1.33;1.23;;;18.00;43.20;;;;;;5065732;28;20429;-66